Time,TemperatureF,DewpointF,PressureIn,WindDirection,WindDirectionDegrees,WindSpeedMPH,WindSpeedGustMPH,Humidity,HourlyPrecipIn,Conditions,Clouds,dailyrainin,SoftwareType,DateUTC
2013-06-18 00:00:00,75.3,72.2,29.88,ESE,118,1.0,1.0,90,0.00,,,0.00,WUHU216DAVISVP2,2013-06-18 04:00:00,
2013-06-18 00:05:00,75.3,72.5,29.88,ESE,118,0.0,1.0,91,0.00,,,0.00,WUHU216DAVISVP2,2013-06-18 04:05:00,
2013-06-18 00:10:00,75.3,72.5,29.88,ESE,118,0.0,1.0,91,0.00,,,0.00,WUHU216DAVISVP2,2013-06-18 04:10:00,
2013-06-18 00:15:00,75.3,72.5,29.88,ESE,118,0.0,1.0,91,0.00,,,0.00,WUHU216DAVISVP2,2013-06-18 04:15:00,
2013-06-18 00:20:00,75.3,72.5,29.88,ESE,118,0.0,1.0,91,0.00,,,0.00,WUHU216DAVISVP2,2013-06-18 04:20:00,
2013-06-18 00:25:00,75.4,72.6,29.88,ESE,118,0.0,1.0,91,0.00,,,0.00,WUHU216DAVISVP2,2013-06-18 04:25:00,
2013-06-18 00:30:00,75.7,73.5,29.88,SE,127,0.0,3.0,93,0.00,,,0.00,WUHU216DAVISVP2,2013-06-18 04:30:00,
2013-06-18 00:35:00,75.8,73.6,29.87,SE,131,2.0,3.0,93,0.00,,,0.00,WUHU216DAVISVP2,2013-06-18 04:35:00,
2013-06-18 00:40:00,75.9,73.7,29.87,SE,131,2.0,3.0,93,0.00,,,0.00,WUHU216DAVISVP2,2013-06-18 04:40:00,
2013-06-18 00:45:00,75.9,73.7,29.87,SE,131,0.0,3.0,93,0.00,,,0.00,WUHU216DAVISVP2,2013-06-18 04:45:00,
2013-06-18 00:50:00,75.8,73.6,29.87,SE,131,0.0,3.0,93,0.00,,,0.00,WUHU216DAVISVP2,2013-06-18 04:50:00,
2013-06-18 00:55:00,75.8,73.6,29.87,SE,131,0.0,3.0,93,0.00,,,0.00,WUHU216DAVISVP2,2013-06-18 04:55:00,
2013-06-18 01:00:00,75.7,73.5,29.87,SE,131,0.0,3.0,93,0.00,,,0.00,WUHU216DAVISVP2,2013-06-18 05:00:00,
2013-06-18 01:05:00,75.6,73.4,29.87,SE,131,0.0,1.0,93,0.00,,,0.00,WUHU216DAVISVP2,2013-06-18 05:05:00,
2013-06-18 01:10:00,75.5,73.3,29.87,SE,131,0.0,1.0,93,0.00,,,0.00,WUHU216DAVISVP2,2013-06-18 05:10:00,
2013-06-18 01:15:00,75.5,73.3,29.87,SE,131,0.0,2.0,93,0.00,,,0.00,WUHU216DAVISVP2,2013-06-18 05:15:00,
2013-06-18 01:20:00,75.5,73.3,29.87,SE,131,0.0,2.0,93,0.00,,,0.00,WUHU216DAVISVP2,2013-06-18 05:20:00,
2013-06-18 01:25:00,75.2,72.1,29.87,East,81,0.0,2.0,90,0.00,,,0.00,WUHU216DAVISVP2,2013-06-18 05:25:00,
2013-06-18 01:30:00,74.7,70.9,29.87,East,97,0.0,2.0,88,0.00,,,0.00,WUHU216DAVISVP2,2013-06-18 05:30:00,
2013-06-18 01:35:00,74.5,70.7,29.87,East,97,0.0,2.0,88,0.00,,,0.00,WUHU216DAVISVP2,2013-06-18 05:35:00,
2013-06-18 01:40:00,74.4,70.6,29.87,East,98,0.0,2.0,88,0.00,,,0.00,WUHU216DAVISVP2,2013-06-18 05:40:00,
2013-06-18 01:45:00,74.3,70.5,29.86,East,99,0.0,2.0,88,0.00,,,0.00,WUHU216DAVISVP2,2013-06-18 05:45:00,
2013-06-18 01:50:00,74.2,70.4,29.86,NE,49,0.0,2.0,88,0.00,,,0.00,WUHU216DAVISVP2,2013-06-18 05:50:00,
2013-06-18 01:55:00,74.1,70.0,29.86,NE,55,0.0,2.0,87,0.00,,,0.00,WUHU216DAVISVP2,2013-06-18 05:55:00,
2013-06-18 02:00:00,73.9,69.8,29.86,ENE,60,0.0,2.0,87,0.00,,,0.00,WUHU216DAVISVP2,2013-06-18 06:00:00,
2013-06-18 02:05:00,73.7,69.3,29.86,ENE,60,0.0,2.0,86,0.00,,,0.00,WUHU216DAVISVP2,2013-06-18 06:05:00,
2013-06-18 02:10:00,73.6,69.2,29.85,ESE,116,1.0,2.0,86,0.00,,,0.00,WUHU216DAVISVP2,2013-06-18 06:10:00,
2013-06-18 02:15:00,73.5,68.7,29.85,ESE,116,0.0,2.0,85,0.00,,,0.00,WUHU216DAVISVP2,2013-06-18 06:15:00,
2013-06-18 02:20:00,73.5,69.1,29.85,ESE,116,0.0,2.0,86,0.00,,,0.00,WUHU216DAVISVP2,2013-06-18 06:20:00,
2013-06-18 02:25:00,73.4,69.0,29.84,ESE,116,0.0,2.0,86,0.00,,,0.00,WUHU216DAVISVP2,2013-06-18 06:25:00,
2013-06-18 02:30:00,73.3,69.2,29.85,ESE,116,0.0,2.0,87,0.00,,,0.00,WUHU216DAVISVP2,2013-06-18 06:30:00,
2013-06-18 02:35:00,73.3,69.2,29.85,ESE,116,0.0,1.0,87,0.00,,,0.00,WUHU216DAVISVP2,2013-06-18 06:35:00,
2013-06-18 02:40:00,73.3,69.2,29.84,ESE,116,0.0,2.0,87,0.00,,,0.00,WUHU216DAVISVP2,2013-06-18 06:40:00,
2013-06-18 02:45:00,73.3,69.2,29.84,ESE,116,0.0,2.0,87,0.00,,,0.00,WUHU216DAVISVP2,2013-06-18 06:45:00,
2013-06-18 02:50:00,73.2,69.1,29.83,ESE,116,0.0,2.0,87,0.00,,,0.00,WUHU216DAVISVP2,2013-06-18 06:50:00,
2013-06-18 02:55:00,73.1,69.0,29.83,ESE,116,0.0,2.0,87,0.00,,,0.00,WUHU216DAVISVP2,2013-06-18 06:55:00,
2013-06-18 03:00:00,73.0,69.2,29.83,ESE,116,0.0,1.0,88,0.00,,,0.00,WUHU216DAVISVP2,2013-06-18 07:00:00,
2013-06-18 03:05:00,72.9,69.1,29.83,ESE,116,0.0,1.0,88,0.00,,,0.00,WUHU216DAVISVP2,2013-06-18 07:05:00,
2013-06-18 03:10:00,72.8,69.0,29.83,ESE,116,0.0,0.0,88,0.00,,,0.00,WUHU216DAVISVP2,2013-06-18 07:10:00,
2013-06-18 03:15:00,72.7,69.3,29.83,ESE,116,0.0,0.0,89,0.00,,,0.00,WUHU216DAVISVP2,2013-06-18 07:15:00,
2013-06-18 03:20:00,72.7,69.6,29.82,ESE,116,0.0,0.0,90,0.00,,,0.00,WUHU216DAVISVP2,2013-06-18 07:20:00,
2013-06-18 03:25:00,72.8,70.0,29.82,ESE,116,0.0,1.0,91,0.00,,,0.00,WUHU216DAVISVP2,2013-06-18 07:25:00,
2013-06-18 03:30:00,72.9,70.4,29.82,ESE,116,0.0,1.0,92,0.00,,,0.00,WUHU216DAVISVP2,2013-06-18 07:30:00,
2013-06-18 03:35:00,73.1,70.6,29.82,ESE,116,0.0,2.0,92,0.00,,,0.00,WUHU216DAVISVP2,2013-06-18 07:35:00,
2013-06-18 03:40:00,73.2,70.7,29.82,ESE,116,0.0,2.0,92,0.00,,,0.00,WUHU216DAVISVP2,2013-06-18 07:40:00,
2013-06-18 03:45:00,73.2,70.7,29.82,ESE,116,0.0,2.0,92,0.00,,,0.00,WUHU216DAVISVP2,2013-06-18 07:45:00,
2013-06-18 03:50:00,73.2,70.7,29.82,ESE,116,0.0,2.0,92,0.00,,,0.00,WUHU216DAVISVP2,2013-06-18 07:50:00,
2013-06-18 03:55:00,73.1,70.9,29.82,ESE,116,0.0,0.0,93,0.00,,,0.00,WUHU216DAVISVP2,2013-06-18 07:55:00,
2013-06-18 04:00:00,73.0,70.8,29.82,ESE,116,0.0,0.0,93,0.00,,,0.00,WUHU216DAVISVP2,2013-06-18 08:00:00,
2013-06-18 04:05:00,73.0,70.8,29.82,ESE,116,0.0,1.0,93,0.00,,,0.00,WUHU216DAVISVP2,2013-06-18 08:05:00,
2013-06-18 04:10:00,72.9,70.7,29.82,ESE,116,0.0,1.0,93,0.00,,,0.00,WUHU216DAVISVP2,2013-06-18 08:10:00,
2013-06-18 04:15:00,72.8,70.6,29.82,ESE,116,0.0,1.0,93,0.00,,,0.00,WUHU216DAVISVP2,2013-06-18 08:15:00,
2013-06-18 04:20:00,72.7,70.8,29.82,ESE,116,0.0,1.0,94,0.00,,,0.00,WUHU216DAVISVP2,2013-06-18 08:20:00,
2013-06-18 04:25:00,72.6,70.7,29.81,ESE,116,0.0,0.0,94,0.00,,,0.00,WUHU216DAVISVP2,2013-06-18 08:25:00,
2013-06-18 04:30:00,72.7,70.8,29.82,ESE,116,0.0,0.0,94,0.00,,,0.00,WUHU216DAVISVP2,2013-06-18 08:30:00,
2013-06-18 04:36:00,72.6,70.7,29.82,ESE,116,0.0,1.0,94,0.00,,,0.00,WUHU216DAVISVP2,2013-06-18 08:36:00,
2013-06-18 04:41:00,72.6,71.1,29.82,ESE,116,0.0,1.0,95,0.00,,,0.00,WUHU216DAVISVP2,2013-06-18 08:41:00,
2013-06-18 04:46:00,72.6,71.1,29.82,ESE,116,0.0,1.0,95,0.00,,,0.00,WUHU216DAVISVP2,2013-06-18 08:46:00,
2013-06-18 04:51:00,72.5,71.0,29.82,ESE,116,0.0,1.0,95,0.00,,,0.00,WUHU216DAVISVP2,2013-06-18 08:51:00,
2013-06-18 04:56:00,72.5,71.0,29.82,ESE,116,0.0,0.0,95,0.00,,,0.00,WUHU216DAVISVP2,2013-06-18 08:56:00,
2013-06-18 05:01:00,72.5,71.0,29.81,ESE,116,0.0,0.0,95,0.00,,,0.00,WUHU216DAVISVP2,2013-06-18 09:01:00,
2013-06-18 05:06:00,72.5,71.3,29.81,ESE,116,0.0,0.0,96,0.00,,,0.00,WUHU216DAVISVP2,2013-06-18 09:06:00,
2013-06-18 05:11:00,72.5,71.3,29.81,ESE,116,0.0,0.0,96,0.00,,,0.00,WUHU216DAVISVP2,2013-06-18 09:11:00,
2013-06-18 05:16:00,72.4,71.2,29.81,ESE,116,0.0,0.0,96,0.00,,,0.00,WUHU216DAVISVP2,2013-06-18 09:16:00,
2013-06-18 05:21:00,72.3,71.1,29.81,ESE,116,0.0,0.0,96,0.00,,,0.00,WUHU216DAVISVP2,2013-06-18 09:21:00,
2013-06-18 05:26:00,72.3,71.1,29.81,ESE,116,0.0,0.0,96,0.00,,,0.00,WUHU216DAVISVP2,2013-06-18 09:26:00,
2013-06-18 05:31:00,72.3,71.1,29.81,ESE,116,0.0,0.0,96,0.00,,,0.00,WUHU216DAVISVP2,2013-06-18 09:31:00,
2013-06-18 05:36:00,72.1,70.9,29.81,ESE,116,0.0,0.0,96,0.00,,,0.00,WUHU216DAVISVP2,2013-06-18 09:36:00,
2013-06-18 05:41:00,72.0,70.8,29.81,ESE,116,0.0,0.0,96,0.00,,,0.00,WUHU216DAVISVP2,2013-06-18 09:41:00,
2013-06-18 05:46:00,71.9,70.7,29.81,ESE,116,0.0,0.0,96,0.00,,,0.00,WUHU216DAVISVP2,2013-06-18 09:46:00,
2013-06-18 05:51:00,71.9,70.7,29.82,ESE,116,0.0,0.0,96,0.00,,,0.00,WUHU216DAVISVP2,2013-06-18 09:51:00,
2013-06-18 05:56:00,71.8,70.6,29.82,ESE,116,0.0,0.0,96,0.00,,,0.00,WUHU216DAVISVP2,2013-06-18 09:56:00,
2013-06-18 06:01:00,71.8,70.6,29.82,ESE,116,0.0,0.0,96,0.00,,,0.00,WUHU216DAVISVP2,2013-06-18 10:01:00,
2013-06-18 06:06:00,71.7,70.5,29.82,ESE,116,0.0,0.0,96,0.00,,,0.00,WUHU216DAVISVP2,2013-06-18 10:06:00,
2013-06-18 06:11:00,71.7,70.5,29.82,ESE,116,0.0,0.0,96,0.00,,,0.00,WUHU216DAVISVP2,2013-06-18 10:11:00,
2013-06-18 06:16:00,71.7,70.5,29.82,ESE,116,0.0,0.0,96,0.00,,,0.00,WUHU216DAVISVP2,2013-06-18 10:16:00,
2013-06-18 06:21:00,71.7,70.5,29.83,ESE,116,0.0,0.0,96,0.00,,,0.00,WUHU216DAVISVP2,2013-06-18 10:21:00,
2013-06-18 06:26:00,71.7,70.8,29.83,ESE,116,0.0,0.0,97,0.00,,,0.00,WUHU216DAVISVP2,2013-06-18 10:26:00,
2013-06-18 06:31:00,71.7,70.8,29.83,ESE,116,0.0,0.0,97,0.00,,,0.00,WUHU216DAVISVP2,2013-06-18 10:31:00,
2013-06-18 06:36:00,71.7,70.8,29.83,ESE,116,0.0,0.0,97,0.00,,,0.00,WUHU216DAVISVP2,2013-06-18 10:36:00,
2013-06-18 06:41:00,71.8,70.9,29.83,ESE,116,0.0,0.0,97,0.00,,,0.00,WUHU216DAVISVP2,2013-06-18 10:41:00,
2013-06-18 06:46:00,71.8,70.9,29.83,ESE,116,0.0,0.0,97,0.00,,,0.00,WUHU216DAVISVP2,2013-06-18 10:46:00,
2013-06-18 06:51:00,72.0,71.1,29.83,ESE,122,0.0,1.0,97,0.00,,,0.00,WUHU216DAVISVP2,2013-06-18 10:51:00,
2013-06-18 06:56:00,72.2,71.3,29.83,ESE,122,0.0,1.0,97,0.00,,,0.00,WUHU216DAVISVP2,2013-06-18 10:56:00,
2013-06-18 07:01:00,72.4,71.5,29.83,ESE,122,0.0,1.0,97,0.00,,,0.00,WUHU216DAVISVP2,2013-06-18 11:01:00,
2013-06-18 07:06:00,72.6,71.7,29.83,ESE,122,0.0,1.0,97,0.00,,,0.00,WUHU216DAVISVP2,2013-06-18 11:06:00,
2013-06-18 07:11:00,72.8,71.9,29.83,ESE,122,0.0,1.0,97,0.00,,,0.00,WUHU216DAVISVP2,2013-06-18 11:11:00,
2013-06-18 07:16:00,72.9,72.0,29.83,ESE,122,0.0,1.0,97,0.00,,,0.00,WUHU216DAVISVP2,2013-06-18 11:16:00,
2013-06-18 07:21:00,73.0,72.1,29.83,ESE,122,0.0,1.0,97,0.00,,,0.00,WUHU216DAVISVP2,2013-06-18 11:21:00,
2013-06-18 07:26:00,73.1,72.2,29.83,ESE,122,0.0,1.0,97,0.00,,,0.00,WUHU216DAVISVP2,2013-06-18 11:26:00,
2013-06-18 07:31:00,73.3,72.4,29.84,ESE,122,0.0,1.0,97,0.00,,,0.00,WUHU216DAVISVP2,2013-06-18 11:31:00,
2013-06-18 07:36:00,73.4,72.2,29.83,ESE,122,1.0,1.0,96,0.00,,,0.00,WUHU216DAVISVP2,2013-06-18 11:36:00,
2013-06-18 07:41:00,73.5,72.3,29.83,ESE,122,0.0,1.0,96,0.00,,,0.00,WUHU216DAVISVP2,2013-06-18 11:41:00,
2013-06-18 07:46:00,73.6,72.0,29.83,SE,125,0.0,1.0,95,0.00,,,0.00,WUHU216DAVISVP2,2013-06-18 11:46:00,
2013-06-18 07:51:00,73.7,72.1,29.83,SE,125,0.0,1.0,95,0.00,,,0.00,WUHU216DAVISVP2,2013-06-18 11:51:00,
2013-06-18 07:56:00,73.9,72.0,29.83,SE,131,1.0,3.0,94,0.00,,,0.00,WUHU216DAVISVP2,2013-06-18 11:56:00,
2013-06-18 08:01:00,74.1,72.2,29.83,SSW,204,0.0,3.0,94,0.00,,,0.00,WUHU216DAVISVP2,2013-06-18 12:01:00,
2013-06-18 08:06:00,74.2,72.0,29.83,SSW,204,0.0,3.0,93,0.00,,,0.00,WUHU216DAVISVP2,2013-06-18 12:06:00,
2013-06-18 08:11:00,74.3,71.8,29.83,SW,222,0.0,3.0,92,0.00,,,0.00,WUHU216DAVISVP2,2013-06-18 12:11:00,
2013-06-18 08:16:00,74.4,71.9,29.83,SW,222,0.0,3.0,92,0.00,,,0.00,WUHU216DAVISVP2,2013-06-18 12:16:00,
2013-06-18 08:21:00,74.6,72.1,29.84,SW,220,0.0,3.0,92,0.00,,,0.00,WUHU216DAVISVP2,2013-06-18 12:21:00,
2013-06-18 08:26:00,74.8,72.0,29.83,SW,220,0.0,3.0,91,0.00,,,0.00,WUHU216DAVISVP2,2013-06-18 12:26:00,
2013-06-18 08:31:00,74.8,72.0,29.83,SW,220,0.0,2.0,91,0.00,,,0.00,WUHU216DAVISVP2,2013-06-18 12:31:00,
2013-06-18 08:36:00,75.0,72.2,29.83,SW,220,0.0,2.0,91,0.00,,,0.00,WUHU216DAVISVP2,2013-06-18 12:36:00,
2013-06-18 08:41:00,75.1,72.3,29.83,SW,220,0.0,2.0,91,0.00,,,0.00,WUHU216DAVISVP2,2013-06-18 12:41:00,
2013-06-18 08:46:00,75.3,72.5,29.83,SW,220,0.0,1.0,91,0.00,,,0.00,WUHU216DAVISVP2,2013-06-18 12:46:00,
2013-06-18 08:51:00,75.4,72.3,29.83,SW,220,0.0,1.0,90,0.00,,,0.00,WUHU216DAVISVP2,2013-06-18 12:51:00,
2013-06-18 08:56:00,75.6,72.4,29.83,SW,219,0.0,1.0,90,0.00,,,0.00,WUHU216DAVISVP2,2013-06-18 12:56:00,
2013-06-18 09:01:00,75.8,72.6,29.83,SW,219,0.0,1.0,90,0.00,,,0.00,WUHU216DAVISVP2,2013-06-18 13:01:00,
2013-06-18 09:06:00,75.8,72.3,29.83,SW,220,0.0,2.0,89,0.00,,,0.00,WUHU216DAVISVP2,2013-06-18 13:06:00,
2013-06-18 09:11:00,75.8,72.3,29.83,SW,220,0.0,2.0,89,0.00,,,0.00,WUHU216DAVISVP2,2013-06-18 13:11:00,
2013-06-18 09:16:00,75.8,72.3,29.83,SW,220,0.0,2.0,89,0.00,,,0.00,WUHU216DAVISVP2,2013-06-18 13:16:00,
2013-06-18 09:21:00,75.8,72.3,29.83,SW,220,0.0,2.0,89,0.00,,,0.00,WUHU216DAVISVP2,2013-06-18 13:21:00,
2013-06-18 09:26:00,75.9,72.4,29.83,SW,220,0.0,2.0,89,0.00,,,0.00,WUHU216DAVISVP2,2013-06-18 13:26:00,
2013-06-18 09:31:00,75.8,72.3,29.82,SSE,168,0.0,2.0,89,0.00,,,0.00,WUHU216DAVISVP2,2013-06-18 13:31:00,
2013-06-18 09:36:00,75.9,72.4,29.82,South,169,0.0,2.0,89,0.00,,,0.00,WUHU216DAVISVP2,2013-06-18 13:36:00,
2013-06-18 09:41:00,76.0,72.5,29.82,SSE,168,0.0,1.0,89,0.00,,,0.00,WUHU216DAVISVP2,2013-06-18 13:41:00,
2013-06-18 09:46:00,76.0,72.2,29.82,SW,217,0.0,1.0,88,0.00,,,0.00,WUHU216DAVISVP2,2013-06-18 13:46:00,
2013-06-18 09:51:00,76.1,72.3,29.82,SW,217,0.0,1.0,88,0.00,,,0.00,WUHU216DAVISVP2,2013-06-18 13:51:00,
2013-06-18 09:56:00,76.2,72.4,29.82,SW,217,0.0,1.0,88,0.00,,,0.00,WUHU216DAVISVP2,2013-06-18 13:56:00,
2013-06-18 10:01:00,76.4,72.3,29.82,SW,217,0.0,1.0,87,0.00,,,0.00,WUHU216DAVISVP2,2013-06-18 14:01:00,
2013-06-18 10:06:00,76.5,72.4,29.82,SW,217,0.0,1.0,87,0.00,,,0.00,WUHU216DAVISVP2,2013-06-18 14:06:00,
2013-06-18 10:11:00,76.8,72.7,29.82,SW,217,0.0,1.0,87,0.00,,,0.00,WUHU216DAVISVP2,2013-06-18 14:11:00,
2013-06-18 10:16:00,77.1,72.6,29.82,SW,218,0.0,2.0,86,0.00,,,0.00,WUHU216DAVISVP2,2013-06-18 14:16:00,
2013-06-18 10:21:00,77.4,72.6,29.82,SW,217,0.0,2.0,85,0.00,,,0.00,WUHU216DAVISVP2,2013-06-18 14:21:00,
2013-06-18 10:26:00,77.5,72.7,29.82,SW,218,0.0,2.0,85,0.00,,,0.00,WUHU216DAVISVP2,2013-06-18 14:26:00,
2013-06-18 10:31:00,77.5,72.7,29.82,SW,219,0.0,1.0,85,0.00,,,0.00,WUHU216DAVISVP2,2013-06-18 14:31:00,
2013-06-18 10:36:00,77.6,73.1,29.82,SW,219,0.0,1.0,86,0.00,,,0.00,WUHU216DAVISVP2,2013-06-18 14:36:00,
2013-06-18 10:41:00,77.6,72.8,29.82,SW,219,0.0,2.0,85,0.00,,,0.00,WUHU216DAVISVP2,2013-06-18 14:41:00,
2013-06-18 10:46:00,77.5,72.3,29.82,SW,219,0.0,2.0,84,0.00,,,0.00,WUHU216DAVISVP2,2013-06-18 14:46:00,
2013-06-18 10:51:00,77.5,72.3,29.82,SW,219,0.0,2.0,84,0.00,,,0.00,WUHU216DAVISVP2,2013-06-18 14:51:00,
2013-06-18 10:56:00,77.5,72.7,29.82,SW,219,0.0,2.0,85,0.00,,,0.00,WUHU216DAVISVP2,2013-06-18 14:56:00,
2013-06-18 11:01:00,77.5,72.3,29.82,SW,219,0.0,2.0,84,0.00,,,0.00,WUHU216DAVISVP2,2013-06-18 15:01:00,
2013-06-18 11:06:00,77.5,72.7,29.81,SW,219,1.0,1.0,85,0.00,,,0.00,WUHU216DAVISVP2,2013-06-18 15:06:00,
2013-06-18 11:11:00,77.4,72.5,29.82,SW,219,0.0,1.0,85,0.00,,,0.00,WUHU216DAVISVP2,2013-06-18 15:11:00,
2013-06-18 11:16:00,77.4,72.5,29.82,SW,219,0.0,1.0,85,0.00,,,0.00,WUHU216DAVISVP2,2013-06-18 15:16:00,
2013-06-18 11:21:00,77.5,72.7,29.82,SW,219,0.0,1.0,85,0.00,,,0.00,WUHU216DAVISVP2,2013-06-18 15:21:00,
2013-06-18 11:26:00,77.5,72.7,29.82,SW,219,0.0,1.0,85,0.00,,,0.00,WUHU216DAVISVP2,2013-06-18 15:26:00,
2013-06-18 11:31:00,77.4,72.5,29.82,SW,219,0.0,1.0,85,0.00,,,0.00,WUHU216DAVISVP2,2013-06-18 15:31:00,
2013-06-18 11:36:00,77.1,72.6,29.82,WSW,258,0.0,1.0,86,0.00,,,0.00,WUHU216DAVISVP2,2013-06-18 15:36:00,
2013-06-18 11:41:00,77.0,72.5,29.81,WSW,258,0.0,1.0,86,0.00,,,0.00,WUHU216DAVISVP2,2013-06-18 15:41:00,
2013-06-18 11:46:00,77.0,72.9,29.81,WSW,258,0.0,1.0,87,0.00,,,0.00,WUHU216DAVISVP2,2013-06-18 15:46:00,
2013-06-18 11:51:00,77.0,72.9,29.81,WSW,258,0.0,1.0,87,0.00,,,0.00,WUHU216DAVISVP2,2013-06-18 15:51:00,
2013-06-18 11:56:00,77.1,72.9,29.81,WSW,258,0.0,1.0,87,0.00,,,0.00,WUHU216DAVISVP2,2013-06-18 15:56:00,
2013-06-18 12:01:00,77.1,72.6,29.81,West,278,0.0,2.0,86,0.00,,,0.00,WUHU216DAVISVP2,2013-06-18 16:01:00,
2013-06-18 12:06:00,77.2,72.7,29.80,WNW,297,0.0,2.0,86,0.00,,,0.00,WUHU216DAVISVP2,2013-06-18 16:06:00,
2013-06-18 12:11:00,77.2,72.7,29.80,WNW,297,0.0,2.0,86,0.00,,,0.00,WUHU216DAVISVP2,2013-06-18 16:11:00,
2013-06-18 12:16:00,77.3,72.8,29.80,WNW,297,0.0,2.0,86,0.00,,,0.00,WUHU216DAVISVP2,2013-06-18 16:16:00,
2013-06-18 12:21:00,77.3,72.5,29.80,WNW,297,2.0,2.0,85,0.00,,,0.00,WUHU216DAVISVP2,2013-06-18 16:21:00,
2013-06-18 12:26:00,77.0,72.5,29.80,NW,325,1.0,3.0,86,0.00,,,0.00,WUHU216DAVISVP2,2013-06-18 16:26:00,
2013-06-18 12:31:00,76.7,72.6,29.79,North,359,2.0,3.0,87,0.00,,,0.00,WUHU216DAVISVP2,2013-06-18 16:31:00,
2013-06-18 12:36:00,76.6,72.8,29.78,NNW,339,3.0,4.0,88,0.00,,,0.00,WUHU216DAVISVP2,2013-06-18 16:36:00,
2013-06-18 12:41:00,76.6,72.5,29.78,NW,313,0.0,4.0,87,0.00,,,0.00,WUHU216DAVISVP2,2013-06-18 16:41:00,
2013-06-18 12:46:00,76.9,73.4,29.78,WNW,288,2.0,4.0,89,0.00,,,0.00,WUHU216DAVISVP2,2013-06-18 16:46:00,
2013-06-18 12:51:00,76.8,72.7,29.78,NNW,331,0.0,3.0,87,0.00,,,0.00,WUHU216DAVISVP2,2013-06-18 16:51:00,
2013-06-18 12:56:00,76.9,73.1,29.78,NNW,331,0.0,3.0,88,0.00,,,0.00,WUHU216DAVISVP2,2013-06-18 16:56:00,
2013-06-18 13:01:00,77.1,73.6,29.78,NNW,331,0.0,2.0,89,0.00,,,0.00,WUHU216DAVISVP2,2013-06-18 17:01:00,
2013-06-18 13:06:00,77.1,73.0,29.77,NNW,331,0.0,2.0,87,0.00,,,0.00,WUHU216DAVISVP2,2013-06-18 17:06:00,
2013-06-18 13:11:00,77.1,73.0,29.77,NNW,331,0.0,1.0,87,0.00,,,0.00,WUHU216DAVISVP2,2013-06-18 17:11:00,
2013-06-18 13:16:00,77.0,72.5,29.77,NNW,337,0.0,2.0,86,0.00,,,0.00,WUHU216DAVISVP2,2013-06-18 17:16:00,
2013-06-18 13:21:00,76.9,72.1,29.76,WNW,303,0.0,3.0,85,0.00,,,0.00,WUHU216DAVISVP2,2013-06-18 17:21:00,
2013-06-18 13:26:00,76.8,72.7,29.76,NE,36,0.0,3.0,87,0.00,,,0.00,WUHU216DAVISVP2,2013-06-18 17:26:00,
2013-06-18 13:31:00,76.7,72.9,29.75,NE,36,0.0,3.0,88,0.00,,,0.00,WUHU216DAVISVP2,2013-06-18 17:31:00,
2013-06-18 13:36:00,76.7,73.2,29.75,WNW,303,3.0,3.0,89,0.00,,,0.00,WUHU216DAVISVP2,2013-06-18 17:36:00,
2013-06-18 13:41:00,76.5,72.0,29.75,NNW,338,2.0,5.0,86,0.00,,,0.00,WUHU216DAVISVP2,2013-06-18 17:41:00,
2013-06-18 13:46:00,76.5,72.0,29.75,NW,314,0.0,5.0,86,0.00,,,0.00,WUHU216DAVISVP2,2013-06-18 17:46:00,
2013-06-18 13:51:00,76.6,72.8,29.76,NW,314,0.0,5.0,88,0.00,,,0.00,WUHU216DAVISVP2,2013-06-18 17:51:00,
2013-06-18 13:56:00,76.4,73.2,29.76,NW,314,0.0,5.0,90,0.00,,,0.00,WUHU216DAVISVP2,2013-06-18 17:56:00,
2013-06-18 14:01:00,75.9,72.7,29.77,SSE,155,4.0,4.0,90,0.00,,,0.00,WUHU216DAVISVP2,2013-06-18 18:01:00,
2013-06-18 14:06:00,74.4,70.6,29.77,SSE,149,2.0,8.0,88,0.00,,,0.00,WUHU216DAVISVP2,2013-06-18 18:06:00,
2013-06-18 14:11:00,73.3,70.2,29.77,SSW,195,0.0,8.0,90,0.00,,,0.00,WUHU216DAVISVP2,2013-06-18 18:11:00,
2013-06-18 14:16:00,72.4,69.3,29.78,SW,220,0.0,8.0,90,0.00,,,0.00,WUHU216DAVISVP2,2013-06-18 18:16:00,
2013-06-18 14:21:00,71.7,68.9,29.79,SSW,193,1.0,5.0,91,0.00,,,0.00,WUHU216DAVISVP2,2013-06-18 18:21:00,
2013-06-18 14:26:00,70.9,68.5,29.80,SSE,166,2.0,4.0,92,0.00,,,0.00,WUHU216DAVISVP2,2013-06-18 18:26:00,
2013-06-18 14:31:00,70.0,67.9,29.80,WSW,258,3.0,4.0,93,0.00,,,0.00,WUHU216DAVISVP2,2013-06-18 18:31:00,
2013-06-18 14:36:00,69.4,67.6,29.80,SSE,162,2.0,6.0,94,0.00,,,0.00,WUHU216DAVISVP2,2013-06-18 18:36:00,
2013-06-18 14:41:00,69.1,67.6,29.80,SSE,162,1.0,6.0,95,0.00,,,0.00,WUHU216DAVISVP2,2013-06-18 18:41:00,
2013-06-18 14:46:00,69.0,67.5,29.80,SE,140,1.0,6.0,95,0.00,,,0.00,WUHU216DAVISVP2,2013-06-18 18:46:00,
2013-06-18 14:51:00,68.7,67.5,29.79,SSE,149,2.0,5.0,96,0.00,,,0.00,WUHU216DAVISVP2,2013-06-18 18:51:00,
2013-06-18 14:56:00,68.7,67.5,29.79,SSE,149,0.0,4.0,96,0.00,,,0.00,WUHU216DAVISVP2,2013-06-18 18:56:00,
2013-06-18 15:01:00,68.8,67.6,29.79,SSE,149,0.0,4.0,96,0.00,,,0.00,WUHU216DAVISVP2,2013-06-18 19:01:00,
2013-06-18 15:06:00,68.9,68.0,29.79,ESE,108,1.0,4.0,97,0.00,,,0.00,WUHU216DAVISVP2,2013-06-18 19:06:00,
2013-06-18 15:11:00,69.3,68.4,29.79,South,187,0.0,3.0,97,0.00,,,0.00,WUHU216DAVISVP2,2013-06-18 19:11:00,
2013-06-18 15:16:00,69.4,68.5,29.79,South,187,1.0,2.0,97,0.00,,,0.00,WUHU216DAVISVP2,2013-06-18 19:16:00,
2013-06-18 15:21:00,69.3,68.4,29.79,South,186,1.0,2.0,97,0.00,,,0.00,WUHU216DAVISVP2,2013-06-18 19:21:00,
2013-06-18 15:26:00,69.4,68.5,29.79,SSE,162,0.0,2.0,97,0.00,,,0.00,WUHU216DAVISVP2,2013-06-18 19:26:00,
2013-06-18 15:31:00,69.4,68.5,29.78,East,95,0.0,2.0,97,0.00,,,0.00,WUHU216DAVISVP2,2013-06-18 19:31:00,
2013-06-18 15:36:00,69.4,68.5,29.78,NE,54,0.0,2.0,97,0.00,,,0.00,WUHU216DAVISVP2,2013-06-18 19:36:00,
2013-06-18 15:41:00,69.4,68.5,29.78,ESE,114,1.0,2.0,97,0.00,,,0.00,WUHU216DAVISVP2,2013-06-18 19:41:00,
2013-06-18 15:46:00,69.0,68.1,29.78,North,4,0.0,3.0,97,0.00,,,0.00,WUHU216DAVISVP2,2013-06-18 19:46:00,
2013-06-18 15:51:00,68.7,67.5,29.79,NNE,14,0.0,3.0,96,0.00,,,0.00,WUHU216DAVISVP2,2013-06-18 19:51:00,
2013-06-18 15:56:00,68.6,67.4,29.79,NE,39,3.0,4.0,96,0.00,,,0.00,WUHU216DAVISVP2,2013-06-18 19:56:00,
2013-06-18 16:01:00,68.5,67.3,29.79,NNE,21,1.0,4.0,96,0.00,,,0.00,WUHU216DAVISVP2,2013-06-18 20:01:00,
2013-06-18 16:06:00,68.3,66.8,29.79,North,10,0.0,4.0,95,0.00,,,0.00,WUHU216DAVISVP2,2013-06-18 20:06:00,
2013-06-18 16:11:00,68.2,66.7,29.78,NNE,14,3.0,5.0,95,0.00,,,0.00,WUHU216DAVISVP2,2013-06-18 20:11:00,
2013-06-18 16:16:00,68.3,67.1,29.78,NE,39,0.0,5.0,96,0.00,,,0.00,WUHU216DAVISVP2,2013-06-18 20:16:00,
2013-06-18 16:21:00,68.4,67.2,29.78,NNE,16,5.0,5.0,96,0.00,,,0.00,WUHU216DAVISVP2,2013-06-18 20:21:00,
2013-06-18 16:26:00,68.6,67.4,29.78,ENE,64,0.0,5.0,96,0.00,,,0.00,WUHU216DAVISVP2,2013-06-18 20:26:00,
2013-06-18 16:31:00,68.7,67.5,29.78,NNE,15,1.0,5.0,96,0.00,,,0.00,WUHU216DAVISVP2,2013-06-18 20:31:00,
2013-06-18 16:36:00,68.8,67.6,29.79,NNE,18,2.0,5.0,96,0.00,,,0.00,WUHU216DAVISVP2,2013-06-18 20:36:00,
2013-06-18 16:41:00,68.9,67.7,29.79,NNW,343,2.0,4.0,96,0.00,,,0.00,WUHU216DAVISVP2,2013-06-18 20:41:00,
2013-06-18 16:46:00,68.7,67.5,29.79,NNE,26,2.0,8.0,96,0.00,,,0.00,WUHU216DAVISVP2,2013-06-18 20:46:00,
2013-06-18 16:51:00,68.8,67.6,29.80,NNE,19,0.0,8.0,96,0.00,,,0.00,WUHU216DAVISVP2,2013-06-18 20:51:00,
2013-06-18 16:56:00,68.9,67.7,29.79,NNE,27,0.0,8.0,96,0.00,,,0.00,WUHU216DAVISVP2,2013-06-18 20:56:00,
2013-06-18 17:01:00,68.9,67.7,29.78,NNE,27,0.0,8.0,96,0.00,,,0.00,WUHU216DAVISVP2,2013-06-18 21:01:00,
2013-06-18 17:07:00,69.1,68.2,29.78,North,354,1.0,4.0,97,0.00,,,0.00,WUHU216DAVISVP2,2013-06-18 21:07:00,
2013-06-18 17:12:00,69.2,68.3,29.77,ENE,59,2.0,4.0,97,0.00,,,0.00,WUHU216DAVISVP2,2013-06-18 21:12:00,
2013-06-18 17:17:00,69.3,68.4,29.76,NNW,345,1.0,4.0,97,0.00,,,0.00,WUHU216DAVISVP2,2013-06-18 21:17:00,
2013-06-18 17:22:00,69.3,68.4,29.77,NNE,21,1.0,4.0,97,0.00,,,0.00,WUHU216DAVISVP2,2013-06-18 21:22:00,
2013-06-18 17:27:00,69.1,68.2,29.77,NNE,19,4.0,4.0,97,0.00,,,0.00,WUHU216DAVISVP2,2013-06-18 21:27:00,
2013-06-18 17:32:00,68.8,67.6,29.77,NNE,25,0.0,4.0,96,0.00,,,0.00,WUHU216DAVISVP2,2013-06-18 21:32:00,
2013-06-18 17:37:00,68.8,67.6,29.77,North,4,3.0,4.0,96,0.00,,,0.00,WUHU216DAVISVP2,2013-06-18 21:37:00,
2013-06-18 17:42:00,68.4,67.2,29.77,NNE,14,4.0,7.0,96,0.00,,,0.00,WUHU216DAVISVP2,2013-06-18 21:42:00,
2013-06-18 17:47:00,68.2,67.0,29.77,NW,326,5.0,7.0,96,0.00,,,0.00,WUHU216DAVISVP2,2013-06-18 21:47:00,
2013-06-18 17:52:00,68.2,67.0,29.77,NNE,19,5.0,7.0,96,0.00,,,0.00,WUHU216DAVISVP2,2013-06-18 21:52:00,
2013-06-18 17:57:00,68.2,67.0,29.77,NNE,29,2.0,7.0,96,0.00,,,0.00,WUHU216DAVISVP2,2013-06-18 21:57:00,
2013-06-18 18:02:00,68.2,67.0,29.77,North,10,0.0,6.0,96,0.00,,,0.00,WUHU216DAVISVP2,2013-06-18 22:02:00,
2013-06-18 18:07:00,68.2,67.0,29.78,NW,304,0.0,5.0,96,0.00,,,0.00,WUHU216DAVISVP2,2013-06-18 22:07:00,
2013-06-18 18:12:00,68.2,67.0,29.78,NW,304,0.0,5.0,96,0.00,,,0.00,WUHU216DAVISVP2,2013-06-18 22:12:00,
2013-06-18 18:17:00,68.1,66.9,29.78,North,4,2.0,4.0,96,0.00,,,0.00,WUHU216DAVISVP2,2013-06-18 22:17:00,
2013-06-18 18:22:00,68.2,67.0,29.78,NNW,335,1.0,4.0,96,0.00,,,0.00,WUHU216DAVISVP2,2013-06-18 22:22:00,
2013-06-18 18:27:00,68.1,66.9,29.77,NNW,347,0.0,5.0,96,0.00,,,0.00,WUHU216DAVISVP2,2013-06-18 22:27:00,
2013-06-18 18:32:00,68.2,67.3,29.77,NNW,347,0.0,5.0,97,0.00,,,0.00,WUHU216DAVISVP2,2013-06-18 22:32:00,
2013-06-18 18:37:00,68.1,66.9,29.76,ENE,73,0.0,5.0,96,0.00,,,0.00,WUHU216DAVISVP2,2013-06-18 22:37:00,
2013-06-18 18:42:00,68.2,67.3,29.76,NNE,27,3.0,5.0,97,0.00,,,0.00,WUHU216DAVISVP2,2013-06-18 22:42:00,
2013-06-18 18:47:00,68.3,67.4,29.76,NNE,27,0.0,4.0,97,0.00,,,0.00,WUHU216DAVISVP2,2013-06-18 22:47:00,
2013-06-18 18:52:00,68.3,67.4,29.76,East,91,0.0,4.0,97,0.00,,,0.00,WUHU216DAVISVP2,2013-06-18 22:52:00,
2013-06-18 18:57:00,68.2,67.0,29.76,WNW,282,0.0,4.0,96,0.00,,,0.00,WUHU216DAVISVP2,2013-06-18 22:57:00,
2013-06-18 19:02:00,68.1,66.9,29.77,WNW,282,0.0,4.0,96,0.00,,,0.00,WUHU216DAVISVP2,2013-06-18 23:02:00,
2013-06-18 19:07:00,67.9,66.7,29.77,SW,217,0.0,2.0,96,0.00,,,0.00,WUHU216DAVISVP2,2013-06-18 23:07:00,
2013-06-18 19:12:00,67.8,66.6,29.77,WNW,286,0.0,2.0,96,0.00,,,0.00,WUHU216DAVISVP2,2013-06-18 23:12:00,
2013-06-18 19:17:00,68.0,66.8,29.77,NNE,26,1.0,2.0,96,0.00,,,0.00,WUHU216DAVISVP2,2013-06-18 23:17:00,
2013-06-18 19:22:00,68.1,66.9,29.77,NE,39,0.0,3.0,96,0.00,,,0.00,WUHU216DAVISVP2,2013-06-18 23:22:00,
2013-06-18 19:27:00,68.1,66.9,29.76,NE,54,0.0,3.0,96,0.00,,,0.00,WUHU216DAVISVP2,2013-06-18 23:27:00,
2013-06-18 19:32:00,68.1,66.9,29.75,ENE,60,1.0,3.0,96,0.00,,,0.00,WUHU216DAVISVP2,2013-06-18 23:32:00,
2013-06-18 19:37:00,67.8,66.6,29.75,North,354,1.0,3.0,96,0.00,,,0.00,WUHU216DAVISVP2,2013-06-18 23:37:00,
2013-06-18 19:42:00,67.7,66.2,29.77,North,4,1.0,3.0,95,0.00,,,0.00,WUHU216DAVISVP2,2013-06-18 23:42:00,
2013-06-18 19:47:00,67.8,66.3,29.77,NNW,346,2.0,4.0,95,0.00,,,0.00,WUHU216DAVISVP2,2013-06-18 23:47:00,
2013-06-18 19:52:00,67.8,66.3,29.77,NW,310,4.0,6.0,95,0.00,,,0.00,WUHU216DAVISVP2,2013-06-18 23:52:00,
2013-06-18 19:57:00,67.7,65.9,29.78,NW,315,2.0,6.0,94,0.00,,,0.00,WUHU216DAVISVP2,2013-06-18 23:57:00,
2013-06-18 20:02:00,67.7,66.2,29.79,NW,309,1.0,6.0,95,0.00,,,0.00,WUHU216DAVISVP2,2013-06-19 00:02:00,
2013-06-18 20:07:00,67.6,65.8,29.79,North,359,0.0,6.0,94,0.00,,,0.00,WUHU216DAVISVP2,2013-06-19 00:07:00,
2013-06-18 20:12:00,67.4,65.6,29.78,North,359,2.0,4.0,94,0.00,,,0.00,WUHU216DAVISVP2,2013-06-19 00:12:00,
2013-06-18 20:17:00,67.4,65.6,29.79,WNW,287,0.0,4.0,94,0.00,,,0.00,WUHU216DAVISVP2,2013-06-19 00:17:00,
2013-06-18 20:22:00,67.2,65.4,29.79,NNW,337,2.0,4.0,94,0.00,,,0.00,WUHU216DAVISVP2,2013-06-19 00:22:00,
2013-06-18 20:27:00,67.2,65.7,29.79,NNW,335,0.0,4.0,95,0.00,,,0.00,WUHU216DAVISVP2,2013-06-19 00:27:00,
2013-06-18 20:32:00,67.1,65.6,29.79,NNW,335,0.0,4.0,95,0.00,,,0.00,WUHU216DAVISVP2,2013-06-19 00:32:00,
2013-06-18 20:37:00,67.0,65.5,29.79,NNW,335,0.0,4.0,95,0.00,,,0.00,WUHU216DAVISVP2,2013-06-19 00:37:00,
2013-06-18 20:42:00,67.0,65.5,29.79,NNW,336,0.0,2.0,95,0.00,,,0.00,WUHU216DAVISVP2,2013-06-19 00:42:00,
2013-06-18 20:47:00,66.8,65.6,29.80,NNW,336,0.0,1.0,96,0.00,,,0.00,WUHU216DAVISVP2,2013-06-19 00:47:00,
2013-06-18 20:52:00,66.7,65.2,29.80,NNW,336,0.0,1.0,95,0.00,,,0.00,WUHU216DAVISVP2,2013-06-19 00:52:00,
2013-06-18 20:57:00,66.5,65.3,29.80,NNW,336,0.0,1.0,96,0.00,,,0.00,WUHU216DAVISVP2,2013-06-19 00:57:00,
2013-06-18 21:02:00,66.4,65.2,29.81,NNW,336,0.0,1.0,96,0.00,,,0.00,WUHU216DAVISVP2,2013-06-19 01:02:00,
2013-06-18 21:07:00,66.3,65.1,29.81,NNW,336,0.0,0.0,96,0.00,,,0.00,WUHU216DAVISVP2,2013-06-19 01:07:00,
2013-06-18 21:12:00,66.2,65.0,29.81,NNW,336,0.0,1.0,96,0.00,,,0.00,WUHU216DAVISVP2,2013-06-19 01:12:00,
2013-06-18 21:17:00,66.1,64.9,29.81,NNW,336,0.0,1.0,96,0.00,,,0.00,WUHU216DAVISVP2,2013-06-19 01:17:00,
2013-06-18 21:22:00,66.2,65.3,29.81,NNW,336,0.0,2.0,97,0.00,,,0.00,WUHU216DAVISVP2,2013-06-19 01:22:00,
2013-06-18 21:27:00,66.1,65.2,29.82,NNW,336,0.0,2.0,97,0.00,,,0.00,WUHU216DAVISVP2,2013-06-19 01:27:00,
2013-06-18 21:32:00,66.0,65.1,29.82,NNW,336,0.0,2.0,97,0.00,,,0.00,WUHU216DAVISVP2,2013-06-19 01:32:00,
2013-06-18 21:37:00,66.0,65.1,29.82,NNW,336,0.0,1.0,97,0.00,,,0.00,WUHU216DAVISVP2,2013-06-19 01:37:00,
2013-06-18 21:42:00,65.9,65.0,29.83,NNW,336,0.0,1.0,97,0.00,,,0.00,WUHU216DAVISVP2,2013-06-19 01:42:00,
2013-06-18 21:47:00,65.8,64.9,29.83,NNW,336,0.0,1.0,97,0.00,,,0.00,WUHU216DAVISVP2,2013-06-19 01:47:00,
2013-06-18 21:52:00,65.6,64.7,29.83,NNW,336,0.0,1.0,97,0.00,,,0.00,WUHU216DAVISVP2,2013-06-19 01:52:00,
2013-06-18 21:57:00,65.5,64.6,29.83,NNW,336,0.0,0.0,97,0.00,,,0.00,WUHU216DAVISVP2,2013-06-19 01:57:00,
2013-06-18 22:02:00,65.4,64.5,29.83,NNW,336,0.0,0.0,97,0.00,,,0.00,WUHU216DAVISVP2,2013-06-19 02:02:00,
2013-06-18 22:07:00,65.5,64.6,29.83,NNW,336,0.0,1.0,97,0.00,,,0.00,WUHU216DAVISVP2,2013-06-19 02:07:00,
2013-06-18 22:12:00,65.4,64.5,29.84,NNW,336,0.0,1.0,97,0.00,,,0.00,WUHU216DAVISVP2,2013-06-19 02:12:00,
2013-06-18 22:17:00,65.3,64.4,29.83,NNW,336,0.0,1.0,97,0.00,,,0.00,WUHU216DAVISVP2,2013-06-19 02:17:00,
2013-06-18 22:22:00,65.3,64.4,29.84,NNW,336,0.0,1.0,97,0.00,,,0.00,WUHU216DAVISVP2,2013-06-19 02:22:00,
2013-06-18 22:27:00,65.2,64.3,29.84,NNW,336,0.0,1.0,97,0.00,,,0.00,WUHU216DAVISVP2,2013-06-19 02:27:00,
2013-06-18 22:32:00,65.1,64.2,29.83,NNW,336,0.0,1.0,97,0.00,,,0.00,WUHU216DAVISVP2,2013-06-19 02:32:00,
2013-06-18 22:37:00,65.0,64.1,29.83,NNW,336,0.0,0.0,97,0.00,,,0.00,WUHU216DAVISVP2,2013-06-19 02:37:00,
2013-06-18 22:42:00,64.9,64.0,29.84,NNW,336,0.0,0.0,97,0.00,,,0.00,WUHU216DAVISVP2,2013-06-19 02:42:00,
2013-06-18 22:47:00,64.9,64.0,29.84,NNW,336,0.0,0.0,97,0.00,,,0.00,WUHU216DAVISVP2,2013-06-19 02:47:00,
2013-06-18 22:52:00,64.8,64.2,29.83,NNW,336,0.0,0.0,98,0.00,,,0.00,WUHU216DAVISVP2,2013-06-19 02:52:00,
2013-06-18 22:57:00,64.8,64.2,29.84,NNW,336,0.0,0.0,98,0.00,,,0.00,WUHU216DAVISVP2,2013-06-19 02:57:00,
2013-06-18 23:02:00,64.7,64.1,29.83,NNW,336,0.0,0.0,98,0.00,,,0.00,WUHU216DAVISVP2,2013-06-19 03:02:00,
2013-06-18 23:07:00,64.7,64.1,29.83,NNW,336,0.0,0.0,98,0.00,,,0.00,WUHU216DAVISVP2,2013-06-19 03:07:00,
2013-06-18 23:12:00,64.7,64.1,29.83,NNW,336,0.0,0.0,98,0.00,,,0.00,WUHU216DAVISVP2,2013-06-19 03:12:00,
2013-06-18 23:17:00,64.7,64.1,29.84,NNW,336,0.0,0.0,98,0.00,,,0.00,WUHU216DAVISVP2,2013-06-19 03:17:00,
2013-06-18 23:22:00,64.7,64.1,29.84,NNW,336,0.0,0.0,98,0.00,,,0.00,WUHU216DAVISVP2,2013-06-19 03:22:00,
2013-06-18 23:27:00,64.6,64.0,29.84,NNW,336,0.0,0.0,98,0.00,,,0.00,WUHU216DAVISVP2,2013-06-19 03:27:00,
2013-06-18 23:32:00,64.6,64.0,29.84,NNW,336,0.0,0.0,98,0.00,,,0.00,WUHU216DAVISVP2,2013-06-19 03:32:00,
2013-06-18 23:37:00,64.5,63.9,29.84,NNW,336,0.0,0.0,98,0.00,,,0.00,WUHU216DAVISVP2,2013-06-19 03:37:00,
2013-06-18 23:42:00,64.5,63.9,29.84,NNW,336,0.0,0.0,98,0.00,,,0.00,WUHU216DAVISVP2,2013-06-19 03:42:00,
2013-06-18 23:47:00,64.5,63.9,29.84,NNW,336,0.0,0.0,98,0.00,,,0.00,WUHU216DAVISVP2,2013-06-19 03:47:00,
2013-06-18 23:52:00,64.5,63.9,29.84,NNW,336,0.0,0.0,98,0.00,,,0.00,WUHU216DAVISVP2,2013-06-19 03:52:00,
2013-06-18 23:57:00,64.4,63.8,29.84,NNW,336,0.0,0.0,98,0.00,,,0.00,WUHU216DAVISVP2,2013-06-19 03:57:00,